CET,Max TemperatureF,Mean TemperatureF,Min TemperatureF,Max Dew PointF,MeanDew PointF,Min DewpointF,Max Humidity, Mean Humidity, Min Humidity, Max Sea Level PressureIn, Mean Sea Level PressureIn, Min Sea Level PressureIn, Max VisibilityMiles, Mean VisibilityMiles, Min VisibilityMiles, Max Wind SpeedMPH, Mean Wind SpeedMPH, Max Gust SpeedMPH,PrecipitationIn, CloudCover, Events, WindDirDegrees
2011-12-1,66,57,48,61,55,48,100,93,78,30.39,30.32,30.24,6,6,2,12,3,,0.00,2,Fog,125
2011-12-2,66,60,53,59,55,50,100,84,59,30.24,30.08,30.01,6,6,6,15,4,,0.00,3,Rain,177
2011-12-3,62,56,51,55,53,50,100,87,72,30.24,30.17,30.06,6,6,6,18,5,,0.00,3,,45
2011-12-4,64,58,53,57,54,52,100,87,72,30.24,30.17,30.12,6,6,6,14,4,,0.00,2,,244
2011-12-5,64,57,50,57,52,46,100,78,63,30.12,30.08,30.04,6,6,6,18,10,,0.00,1,,241
2011-12-6,66,56,46,55,49,45,94,75,56,30.30,30.18,30.12,6,6,6,13,4,,0.00,1,,265
2011-12-7,64,54,44,52,48,45,100,79,49,30.39,30.33,30.27,6,6,6,14,4,,0.00,1,,275
2011-12-8,66,54,41,57,49,41,100,91,68,30.42,30.36,30.33,6,6,2,8,1,,0.00,1,Fog,248
2011-12-9,62,53,44,57,50,45,100,91,68,30.33,30.22,30.15,6,6,2,7,1,,0.00,5,Fog,100
2011-12-10,64,56,48,57,52,48,100,90,72,30.12,30.07,30.04,6,6,6,10,2,,0.00,2,,253
2011-12-11,60,52,44,55,49,45,100,90,72,30.06,30.04,30.01,6,6,4,7,2,,0.00,2,Fog,287
2011-12-12,62,52,42,52,46,43,100,82,52,30.24,30.14,30.06,6,6,6,13,2,,0.00,2,,301
2011-12-13,62,52,41,52,47,39,100,80,63,30.24,30.15,30.09,6,6,6,20,7,,0.00,1,,254
2011-12-14,66,58,51,55,53,48,94,77,64,30.15,30.12,30.09,6,6,6,20,11,,0.00,1,,237
2011-12-15,62,53,44,50,45,41,100,78,45,30.33,30.27,30.15,6,6,6,14,3,,0.00,1,,306
2011-12-16,62,52,42,54,48,41,93,69,48,30.33,30.03,29.83,6,6,6,34,15,55,0.00,1,,247
2011-12-17,60,56,53,43,39,34,67,52,36,30.06,30.00,29.92,6,6,6,31,21,46,0.00,2,,308
2011-12-18,57,52,46,43,40,34,81,63,50,30.21,30.06,30.01,6,6,6,17,11,31,0.00,2,Rain,305
2011-12-19,57,46,35,46,39,36,100,75,51,30.27,30.22,30.18,6,6,6,15,5,,0.00,1,,294
2011-12-20,60,56,51,50,45,37,72,63,42,30.24,30.18,30.09,6,6,6,18,8,20,0.00,1,,259
2011-12-21,62,52,42,54,49,41,100,81,63,30.24,30.19,30.12,6,6,6,13,3,,0.00,2,,227
2011-12-22,68,57,46,54,50,45,93,71,43,30.33,30.26,30.18,6,6,6,21,8,36,0.00,1,,307
2011-12-23,64,52,39,55,47,39,100,87,56,30.33,30.28,30.24,6,6,6,8,2,,0.00,1,,196
2011-12-24,64,52,39,55,46,39,100,87,49,30.45,30.37,30.27,6,6,6,13,2,,0.00,3,,42
2011-12-25,62,50,39,48,41,36,100,78,45,30.54,30.49,30.45,6,6,6,14,2,,0.00,1,,52
2011-12-26,59,47,35,48,40,34,100,80,51,30.57,30.54,30.51,6,6,6,14,3,,0.00,2,,50
2011-12-27,55,50,44,50,46,41,100,87,76,30.54,30.47,30.42,6,6,1,12,2,,0.00,3,Rain-Thunderstorm,49
2011-12-28,60,48,37,52,43,37,100,85,52,30.48,30.43,30.39,6,6,6,9,2,,0.00,1,,53
2011-12-29,59,46,33,48,41,34,100,86,55,30.39,30.37,30.33,6,6,6,15,3,,0.00,1,,338
2011-12-30,57,46,35,46,41,36,100,77,58,30.42,30.35,30.30,6,6,6,18,5,29,0.00,1,,279
2011-12-31,64,55,46,50,46,43,93,70,52,30.33,30.28,30.24,6,6,6,16,8,,0.00,1,,257